Skip to main content Skip to accessibility
This website is not compatible with your web browser. You should install a newer browser. If you live in Jersey and need help upgrading call the States of Jersey web team on 440099.
gov.je

L'înformâtion et les sèrvices publyis pouor I'Île dé Jèrri

Local METARs

METAR EGJJ 271220Z 09016KT CAVOK 16/09 Q1018 NOSIG

METAR EGJB 271220Z 07011KT 9000 NSC 14/10 Q1018

METAR EGJA 271220Z 07017KT 3000 HZ NSC 11/09 Q1019

METAR LFRD 271200Z AUTO 11010KT 080V150 CAVOK 19/08 Q1017 NOSIG

METAR LFRC 271200Z AUTO 06010KT 4600 BR NSC 13/09 Q1019 BECMG 9999 NSW

 

 

 

​Times are in Greenwich Mean Time (GMT) and not British Summer Time (BST). They will be one hour different during BST.

Back to top
rating button